createdAt,value
2019-04-20T00:02:27.506Z,5.13
2019-04-20T00:04:57.085Z,5.27
2019-04-20T00:07:30.043Z,5.47
2019-04-20T00:10:07.627Z,5.70
2019-04-20T00:12:39.975Z,4.07
2019-04-20T00:14:58.652Z,4.63
2019-04-20T00:17:28.610Z,4.87
2019-04-20T00:19:58.998Z,4.77
2019-04-20T00:22:47.037Z,5.30
2019-04-20T00:25:25.442Z,5.70
2019-04-20T00:28:21.074Z,5.90
2019-04-20T00:30:54.406Z,6.00
2019-04-20T00:33:23.698Z,5.33
2019-04-20T00:35:35.937Z,5.47
2019-04-20T00:38:05.625Z,5.30
2019-04-20T00:40:36.095Z,4.00
2019-04-20T00:43:06.766Z,6.33
2019-04-20T00:45:44.926Z,5.90
2019-04-20T00:48:19.082Z,7.00
2019-04-20T00:50:50.835Z,5.63
2019-04-20T00:53:19.555Z,5.57
2019-04-20T00:55:38.026Z,6.00
2019-04-20T00:58:17.373Z,5.50
2019-04-20T01:01:04.212Z,5.63
2019-04-20T01:03:23.286Z,4.73
2019-04-20T01:06:08.227Z,4.90
2019-04-20T01:08:19.085Z,4.93
2019-04-20T01:10:51.483Z,4.97
2019-04-20T01:13:22.927Z,5.73
2019-04-20T01:15:55.451Z,6.33
2019-04-20T01:18:19.473Z,6.00
2019-04-20T01:20:49.184Z,7.00
2019-04-20T01:23:21.309Z,5.93
2019-04-20T01:25:56.904Z,5.73
2019-04-20T01:28:33.802Z,6.63
2019-04-20T01:30:59.962Z,6.10
2019-04-20T01:33:32.069Z,5.20
2019-04-20T01:36:03.444Z,5.03
2019-04-20T01:38:34.670Z,4.87
2019-04-20T01:40:50.930Z,4.83
2019-04-20T01:43:20.609Z,4.30
2019-04-20T01:45:58.606Z,5.33
2019-04-20T01:48:25.995Z,4.87
2019-04-20T01:50:59.854Z,4.97
2019-04-20T01:53:40.334Z,5.97
2019-04-20T01:56:09.888Z,5.80
2019-04-20T01:58:42.124Z,6.47
2019-04-20T02:00:58.844Z,6.40
2019-04-20T02:03:48.467Z,5.00
2019-04-20T02:06:20.237Z,5.97
2019-04-20T02:08:50.892Z,5.50
2019-04-20T02:11:23.072Z,5.67
2019-04-20T02:13:53.404Z,6.13
2019-04-20T02:16:27.302Z,5.87
2019-04-20T02:19:05.253Z,4.60
2019-04-20T02:21:34.236Z,5.70
2019-04-20T02:23:55.593Z,5.20
2019-04-20T02:26:20.026Z,5.77
2019-04-20T02:29:12.205Z,6.40
2019-04-20T02:37:13.551Z,5.07
2019-04-20T02:39:45.547Z,6.03
2019-04-20T02:47:16.417Z,6.57
2019-04-20T02:52:12.419Z,5.43
2019-04-20T02:54:46.442Z,6.00
2019-04-20T02:57:37.870Z,5.90
2019-04-20T03:02:01.397Z,5.73
2019-04-20T03:04:28.348Z,6.30
2019-04-20T03:06:58.401Z,5.30
2019-04-20T03:09:36.870Z,6.20
2019-04-20T03:12:08.037Z,5.03
2019-04-20T03:14:32.418Z,5.97
2019-04-20T03:17:12.757Z,6.67
2019-04-20T03:19:31.419Z,6.70
2019-04-20T03:24:43.676Z,5.53
2019-04-20T03:27:09.613Z,5.20
2019-04-20T03:29:51.066Z,5.30
2019-04-20T03:37:28.039Z,6.03
2019-04-20T03:39:46.676Z,6.27
2019-04-20T03:42:03.646Z,6.00
2019-04-20T03:44:34.262Z,6.20
2019-04-20T03:47:06.880Z,7.20
2019-04-20T03:49:54.813Z,5.50
2019-04-20T03:52:27.820Z,6.00
2019-04-20T03:54:55.250Z,5.27
2019-04-20T03:57:34.801Z,5.97
2019-04-20T04:00:24.425Z,6.90
2019-04-20T04:03:08.469Z,6.20
2019-04-20T04:05:27.901Z,6.83
2019-04-20T04:07:45.284Z,6.47
2019-04-20T04:10:25.904Z,7.10
2019-04-20T04:13:09.538Z,5.33
2019-04-20T04:15:44.238Z,5.10
2019-04-20T04:18:17.712Z,6.10
2019-04-20T04:20:47.861Z,5.27
2019-04-20T04:23:31.139Z,6.20
2019-04-20T04:26:00.620Z,7.70
2019-04-20T04:28:28.559Z,7.70
2019-04-20T04:31:05.185Z,6.33
2019-04-20T04:36:00.430Z,5.60
2019-04-20T04:38:37.752Z,7.57
2019-04-20T04:43:37.285Z,6.80
2019-04-20T04:45:47.030Z,5.67
2019-04-20T04:48:23.813Z,7.10
2019-04-20T04:50:52.766Z,7.33
2019-04-20T04:53:27.213Z,7.43
2019-04-20T04:55:54.861Z,7.93
2019-04-20T04:58:17.401Z,7.90
2019-04-20T05:00:46.769Z,8.13
2019-04-20T05:03:35.369Z,8.00
2019-04-20T05:06:10.587Z,6.17
2019-04-20T05:08:26.149Z,5.07
2019-04-20T05:10:51.958Z,5.13
2019-04-20T05:13:21.935Z,5.80
2019-04-20T05:16:05.187Z,5.20
2019-04-20T05:18:44.824Z,4.53
2019-04-20T05:21:18.811Z,4.83
2019-04-20T05:23:37.401Z,5.57
2019-04-20T05:26:20.008Z,5.00
2019-04-20T05:28:48.562Z,6.03
2019-04-20T05:31:11.363Z,4.40
2019-04-20T05:34:02.314Z,4.50
2019-04-20T05:36:29.721Z,5.47
2019-04-20T05:39:03.362Z,5.37
2019-04-20T05:41:32.782Z,5.00
2019-04-20T05:43:59.756Z,4.30
2019-04-20T05:46:32.367Z,5.57
2019-04-20T05:49:13.486Z,4.97
2019-04-20T05:51:43.270Z,5.20
2019-04-20T05:54:07.174Z,6.40
2019-04-20T05:56:43.884Z,7.17
2019-04-20T05:59:07.322Z,7.73
2019-04-20T06:01:42.353Z,7.90
2019-04-20T06:04:10.376Z,10.03
2019-04-20T06:06:37.735Z,9.33
2019-04-20T06:11:53.577Z,7.40
2019-04-20T06:14:10.177Z,10.13
2019-04-20T06:17:11.167Z,9.30
2019-04-20T06:19:35.701Z,8.60
2019-04-20T06:22:23.103Z,8.17
2019-04-20T06:24:54.814Z,8.70
2019-04-20T06:27:10.406Z,10.50
2019-04-20T06:29:41.463Z,9.33
2019-04-20T06:32:23.453Z,9.67
2019-04-20T06:34:49.081Z,10.67
2019-04-20T06:37:10.089Z,10.00
2019-04-20T06:42:15.210Z,8.77
2019-04-20T06:44:41.408Z,9.40
2019-04-20T06:47:29.332Z,7.20
2019-04-20T06:50:03.360Z,7.73
2019-04-20T06:55:05.544Z,8.03
2019-04-20T06:57:40.362Z,7.70
2019-04-20T07:00:18.172Z,8.33
2019-04-20T07:02:44.772Z,7.70
2019-04-20T07:05:13.076Z,8.57
2019-04-20T07:07:45.099Z,9.07
2019-04-20T07:12:36.889Z,9.67
2019-04-20T07:15:08.559Z,7.30
2019-04-20T07:20:51.612Z,8.27
2019-04-20T07:23:23.688Z,7.03
2019-04-20T07:25:47.366Z,7.10
2019-04-20T07:28:24.319Z,7.67
2019-04-20T07:30:44.899Z,7.67
2019-04-20T07:33:24.389Z,6.90
2019-04-20T07:35:46.136Z,7.40
2019-04-20T07:38:31.275Z,6.07
2019-04-20T07:40:44.008Z,5.93
2019-04-20T07:43:14.665Z,7.50
2019-04-20T07:45:50.238Z,7.60
2019-04-20T07:48:30.753Z,6.80
2019-04-20T07:50:40.843Z,7.20
2019-04-20T07:53:18.771Z,6.50
2019-04-20T07:56:04.906Z,5.50
2019-04-20T07:58:10.918Z,5.80
2019-04-20T08:01:05.892Z,6.37
2019-04-20T08:05:50.328Z,7.23
2019-04-20T08:08:23.981Z,6.23
2019-04-20T08:10:55.021Z,6.33
2019-04-20T08:13:42.085Z,6.97
2019-04-20T08:16:00.623Z,6.47
2019-04-20T08:18:35.227Z,6.40
2019-04-20T08:21:03.859Z,6.10
2019-04-20T08:23:34.854Z,6.93
2019-04-20T08:25:52.347Z,7.17
2019-04-20T08:28:22.714Z,7.00
2019-04-20T08:31:06.566Z,7.77
2019-04-20T08:33:47.175Z,7.60
2019-04-20T08:36:12.285Z,8.00
2019-04-20T08:41:09.700Z,7.43
2019-04-20T08:46:15.074Z,6.73
2019-04-20T08:48:46.912Z,6.20
2019-04-20T08:51:16.545Z,6.80
2019-04-20T08:53:47.670Z,7.00
2019-04-20T08:56:11.913Z,6.90
2019-04-20T08:58:27.611Z,6.47
2019-04-20T09:01:00.192Z,6.50
2019-04-20T09:03:31.712Z,6.97
2019-04-20T09:06:06.399Z,6.27
2019-04-20T09:08:36.693Z,6.40
2019-04-20T09:11:16.717Z,7.20
2019-04-20T09:13:37.193Z,6.67
2019-04-20T09:15:59.972Z,6.17
2019-04-20T09:18:43.855Z,6.83
2019-04-20T09:21:18.299Z,6.90
2019-04-20T09:23:51.821Z,7.00
2019-04-20T09:26:25.054Z,6.60
2019-04-20T09:28:54.348Z,6.70
2019-04-20T09:31:33.110Z,5.43
2019-04-20T09:34:13.338Z,7.70
2019-04-20T09:36:44.648Z,5.00
2019-04-20T09:39:12.742Z,5.83
2019-04-20T09:41:56.290Z,3.70
2019-04-20T09:44:06.702Z,5.60
2019-04-20T09:46:41.285Z,5.20
2019-04-20T09:49:15.733Z,5.33
2019-04-20T09:51:50.041Z,4.60
2019-04-20T09:54:25.825Z,4.67
2019-04-20T09:57:02.143Z,5.23
2019-04-20T09:59:28.989Z,4.43
2019-04-20T10:01:45.030Z,3.70
2019-04-20T10:04:09.072Z,4.13
2019-04-20T10:06:39.314Z,3.33
2019-04-20T10:09:09.631Z,3.63
2019-04-20T10:11:41.779Z,3.97
2019-04-20T10:14:10.300Z,2.93
2019-04-20T10:16:39.996Z,3.67
2019-04-20T10:19:11.448Z,3.37
2019-04-20T10:21:39.120Z,4.23
2019-04-20T10:24:08.560Z,3.40
2019-04-20T10:26:38.576Z,3.07
2019-04-20T10:29:07.916Z,3.17
2019-04-20T10:31:42.660Z,2.83
2019-04-20T10:34:07.514Z,1.70
2019-04-20T10:36:43.843Z,3.53
2019-04-20T10:39:12.960Z,3.07
2019-04-20T10:41:48.950Z,3.23
2019-04-20T10:44:12.411Z,3.30
2019-04-20T10:46:41.036Z,2.87
2019-04-20T10:49:11.094Z,3.20
2019-04-20T10:51:40.303Z,3.00
2019-04-20T10:54:08.992Z,2.90
2019-04-20T10:56:37.640Z,3.07
2019-04-20T10:59:07.627Z,2.57
2019-04-20T11:01:37.856Z,2.70
2019-04-20T11:04:06.677Z,3.20
2019-04-20T11:06:36.485Z,2.30
2019-04-20T11:09:08.769Z,2.70
2019-04-20T11:11:38.782Z,3.20
2019-04-20T11:14:17.917Z,2.17
2019-04-20T11:16:40.287Z,2.90
2019-04-20T11:19:09.445Z,2.60
2019-04-20T11:21:40.808Z,2.30
2019-04-20T11:24:10.043Z,2.50
2019-04-20T11:26:41.641Z,2.33
2019-04-20T11:29:10.438Z,3.17
2019-04-20T11:31:46.338Z,2.50
2019-04-20T11:34:10.253Z,3.10
2019-04-20T11:36:39.311Z,3.00
2019-04-20T11:39:11.269Z,2.37
2019-04-20T11:41:41.490Z,2.50
2019-04-20T11:44:11.720Z,3.00
2019-04-20T11:46:40.814Z,4.53
2019-04-20T11:49:09.772Z,2.90
2019-04-20T11:51:39.442Z,2.07
2019-04-20T11:54:08.413Z,2.80
2019-04-20T11:56:40.728Z,2.10
2019-04-20T11:59:07.530Z,2.50
2019-04-20T12:01:50.215Z,2.53
2019-04-20T12:04:26.127Z,2.77
2019-04-20T12:06:46.574Z,2.47
2019-04-20T12:09:15.342Z,2.50
2019-04-20T12:11:55.987Z,2.37
2019-04-20T12:14:14.518Z,2.50
2019-04-20T12:16:43.756Z,3.17
2019-04-20T12:19:12.737Z,2.70
2019-04-20T12:21:42.179Z,2.50
2019-04-20T12:24:12.241Z,2.70
2019-04-20T12:26:41.198Z,2.73
2019-04-20T12:29:10.021Z,2.47
2019-04-20T12:31:39.788Z,3.00
2019-04-20T12:34:08.719Z,3.10
2019-04-20T12:36:39.495Z,2.03
2019-04-20T12:39:10.982Z,2.83
2019-04-20T12:41:48.056Z,2.73
2019-04-20T12:44:10.137Z,2.80
2019-04-20T12:46:38.877Z,2.40
2019-04-20T12:49:07.814Z,2.33
2019-04-20T12:51:47.418Z,2.50
2019-04-20T12:54:07.072Z,2.80
2019-04-20T12:56:35.718Z,3.70
2019-04-20T12:59:05.532Z,2.40
2019-04-20T13:01:35.447Z,2.30
2019-04-20T13:04:07.126Z,2.50
2019-04-20T13:06:37.127Z,2.23
2019-04-20T13:09:10.718Z,3.40
2019-04-20T13:11:50.749Z,3.00
2019-04-20T13:14:50.664Z,3.33
2019-04-20T13:17:20.017Z,2.47
2019-04-20T13:19:49.202Z,2.80
2019-04-20T13:22:19.017Z,2.53
2019-04-20T13:24:49.232Z,3.00
2019-04-20T13:27:18.747Z,3.10
2019-04-20T13:29:50.541Z,2.70
2019-04-20T13:32:18.148Z,2.23
2019-04-20T13:34:47.043Z,2.23
2019-04-20T13:37:17.985Z,2.23
2019-04-20T13:39:46.875Z,2.40
2019-04-20T13:42:22.703Z,2.80
2019-04-20T13:44:46.126Z,3.07
2019-04-20T13:47:14.942Z,2.50
2019-04-20T13:49:45.070Z,2.40
2019-04-20T13:52:15.026Z,3.17
2019-04-20T13:54:44.122Z,3.00
2019-04-20T13:57:19.745Z,2.90
2019-04-20T13:59:52.127Z,2.50
2019-04-20T14:02:25.102Z,2.00
2019-04-20T14:04:58.969Z,1.70
2019-04-20T14:07:29.233Z,1.90
2019-04-20T14:09:59.514Z,1.80
2019-04-20T14:12:35.132Z,2.03
2019-04-20T14:14:59.450Z,2.27
2019-04-20T14:17:29.011Z,2.83
2019-04-20T14:20:01.093Z,2.07
2019-04-20T14:22:29.297Z,2.67
2019-04-20T14:24:58.229Z,2.23
2019-04-20T14:27:26.871Z,2.27
2019-04-20T14:29:57.002Z,2.70
2019-04-20T14:32:27.104Z,2.23
2019-04-20T14:34:56.820Z,2.10
2019-04-20T14:37:26.746Z,2.07
2019-04-20T14:39:56.422Z,2.50
2019-04-20T14:42:34.799Z,2.27
2019-04-20T14:44:55.777Z,2.30
2019-04-20T14:47:26.088Z,2.27
2019-04-20T14:49:55.714Z,2.07
2019-04-20T14:52:25.900Z,2.30
2019-04-20T14:54:55.343Z,2.77
2019-04-20T14:57:25.500Z,2.73
2019-04-20T14:59:55.994Z,2.37
2019-04-20T15:02:25.904Z,2.13
2019-04-20T15:04:54.930Z,2.50
2019-04-20T15:07:24.657Z,1.80
2019-04-20T15:09:54.981Z,2.20
2019-04-20T15:12:37.627Z,2.30
2019-04-20T15:14:54.581Z,2.30
2019-04-20T15:17:27.876Z,2.53
2019-04-20T15:20:05.550Z,2.47
2019-04-20T15:22:49.662Z,2.90
2019-04-20T15:25:18.746Z,3.37
2019-04-20T15:27:48.137Z,2.90
2019-04-20T15:30:18.353Z,2.70
2019-04-20T15:32:47.223Z,2.33
2019-04-20T15:35:19.121Z,2.37
2019-04-20T15:37:47.040Z,3.77
2019-04-20T15:40:17.308Z,4.23
2019-04-20T15:42:56.159Z,5.63
2019-04-20T15:45:16.570Z,7.10
2019-04-20T15:47:45.903Z,6.07
2019-04-20T15:50:15.991Z,4.40
2019-04-20T15:52:49.425Z,4.07
2019-04-20T15:55:22.617Z,4.10
2019-04-20T15:57:45.736Z,6.00
2019-04-20T16:00:16.231Z,4.30
2019-04-20T16:02:47.340Z,2.97
2019-04-20T16:05:18.635Z,3.80
2019-04-20T16:07:53.489Z,3.40
2019-04-20T16:10:19.255Z,3.13
2019-04-20T16:12:52.711Z,2.30
2019-04-20T16:15:19.892Z,2.77
2019-04-20T16:17:53.094Z,2.03
2019-04-20T16:20:23.526Z,2.70
2019-04-20T16:22:52.259Z,2.33
2019-04-20T16:25:25.659Z,2.20
2019-04-20T16:27:55.744Z,2.60
2019-04-20T16:30:25.392Z,2.30
2019-04-20T16:32:54.668Z,2.40
2019-04-20T16:35:24.590Z,2.73
2019-04-20T16:37:53.515Z,2.70
2019-04-20T16:40:23.469Z,2.47
2019-04-20T16:42:52.714Z,2.83
2019-04-20T16:45:21.537Z,2.80
2019-04-20T16:47:50.220Z,2.60
2019-04-20T16:50:19.307Z,2.40
2019-04-20T16:52:48.841Z,3.10
2019-04-20T16:55:18.837Z,2.83
2019-04-20T16:57:49.543Z,3.50
2019-04-20T17:00:21.013Z,2.93
2019-04-20T17:02:52.260Z,3.23
2019-04-20T17:05:23.016Z,3.17
2019-04-20T17:07:53.655Z,2.90
2019-04-20T17:10:23.816Z,2.90
2019-04-20T17:12:53.707Z,3.77
2019-04-20T17:15:23.620Z,3.50
2019-04-20T17:17:53.805Z,3.67
2019-04-20T17:20:25.211Z,4.40
2019-04-20T17:22:56.234Z,3.17
2019-04-20T17:25:25.915Z,3.23
2019-04-20T17:28:06.897Z,3.37
2019-04-20T17:30:37.917Z,3.70
2019-04-20T17:33:11.579Z,3.40
2019-04-20T17:35:52.315Z,5.30
2019-04-20T17:38:12.160Z,6.87
2019-04-20T17:41:01.262Z,10.47
2019-04-20T17:43:22.087Z,12.10
2019-04-20T17:45:52.363Z,13.57
2019-04-20T17:48:23.308Z,6.67
2019-04-20T17:51:04.751Z,6.87
2019-04-20T17:53:29.383Z,5.37
2019-04-20T17:55:51.393Z,3.97
2019-04-20T17:58:24.113Z,4.00
2019-04-20T18:01:22.048Z,6.13
2019-04-20T18:04:11.065Z,4.50
2019-04-20T18:06:34.955Z,4.50
2019-04-20T18:09:04.785Z,3.90
2019-04-20T18:11:23.459Z,4.07
2019-04-20T18:13:58.924Z,7.50
2019-04-20T18:16:49.315Z,7.40
2019-04-20T18:19:17.004Z,8.30
2019-04-20T18:21:43.532Z,8.93
2019-04-20T18:24:23.962Z,7.10
2019-04-20T18:26:57.655Z,6.50
2019-04-20T18:29:37.272Z,5.50
2019-04-20T18:31:51.449Z,3.47
2019-04-20T18:34:25.345Z,4.27
2019-04-20T18:36:52.804Z,4.43
2019-04-20T18:39:29.105Z,4.90
2019-04-20T18:42:01.174Z,5.83
2019-04-20T18:44:30.366Z,3.47
2019-04-20T18:47:18.215Z,3.80
2019-04-20T18:49:38.638Z,3.10
2019-04-20T18:51:55.649Z,4.10
2019-04-20T18:54:28.667Z,3.93
2019-04-20T18:56:56.477Z,3.67
2019-04-20T18:59:31.759Z,4.30
2019-04-20T19:01:57.023Z,3.60
2019-04-20T19:04:27.947Z,3.80
2019-04-20T19:06:59.486Z,3.40
2019-04-20T19:09:30.439Z,3.57
2019-04-20T19:12:02.882Z,3.40
2019-04-20T19:14:42.042Z,3.47
2019-04-20T19:17:16.718Z,3.23
2019-04-20T19:19:48.483Z,3.37
2019-04-20T19:22:14.305Z,4.77
2019-04-20T19:24:44.920Z,3.57
2019-04-20T19:27:17.009Z,3.77
2019-04-20T19:29:55.571Z,4.77
2019-04-20T19:32:30.263Z,3.80
2019-04-20T19:34:54.995Z,4.50
2019-04-20T19:37:24.238Z,4.10
2019-04-20T19:40:02.818Z,3.50
2019-04-20T19:42:34.725Z,4.03
2019-04-20T19:45:01.645Z,3.77
2019-04-20T19:47:41.606Z,4.97
2019-04-20T19:50:22.029Z,3.00
2019-04-20T19:53:09.691Z,4.53
2019-04-20T19:55:11.414Z,5.67
2019-04-20T19:57:42.447Z,5.07
2019-04-20T19:59:55.910Z,7.17
2019-04-20T20:02:23.691Z,10.20
2019-04-20T20:04:58.545Z,12.47
2019-04-20T20:07:30.897Z,10.30
2019-04-20T20:09:58.209Z,9.10
2019-04-20T20:12:25.344Z,8.50
2019-04-20T20:14:55.403Z,11.07
2019-04-20T20:17:45.362Z,11.77
2019-04-20T20:20:20.351Z,8.67
2019-04-20T20:22:35.199Z,6.37
2019-04-20T20:24:56.815Z,6.47
2019-04-20T20:27:32.588Z,6.00
2019-04-20T20:30:08.216Z,5.47
2019-04-20T20:32:49.070Z,4.60
2019-04-20T20:35:07.213Z,4.60
2019-04-20T20:37:34.662Z,5.03
2019-04-20T20:40:15.195Z,4.60
2019-04-20T20:42:45.815Z,4.70
2019-04-20T20:45:11.971Z,4.30
2019-04-20T20:47:47.158Z,5.27
2019-04-20T20:50:20.391Z,5.20
2019-04-20T20:52:50.852Z,5.63
2019-04-20T20:55:18.223Z,7.70
2019-04-20T20:57:44.877Z,7.77
2019-04-20T21:00:25.258Z,8.07
2019-04-20T21:02:47.197Z,9.63
2019-04-20T21:05:09.743Z,13.07
2019-04-20T21:07:38.650Z,15.30
2019-04-20T21:10:08.745Z,9.13
2019-04-20T21:12:45.505Z,8.00
2019-04-20T21:15:16.345Z,10.63
2019-04-20T21:18:05.542Z,9.57
2019-04-20T21:20:32.802Z,11.07
2019-04-20T21:22:58.722Z,9.30
2019-04-20T21:25:13.010Z,9.37
2019-04-20T21:27:42.564Z,9.57
2019-04-20T21:30:18.401Z,9.33
2019-04-20T21:32:46.990Z,6.70
2019-04-20T21:35:15.932Z,7.40
2019-04-20T21:37:51.251Z,7.57
2019-04-20T21:40:23.289Z,9.53
2019-04-20T21:42:51.643Z,12.10
2019-04-20T21:45:19.457Z,13.07
2019-04-20T21:47:48.290Z,11.60
2019-04-20T21:50:34.416Z,9.60
2019-04-20T21:52:51.998Z,12.57
2019-04-20T21:55:18.352Z,11.87
2019-04-20T21:57:51.692Z,14.97
2019-04-20T22:00:40.159Z,15.27
2019-04-20T22:03:06.277Z,13.97
2019-04-20T22:05:34.603Z,12.80
2019-04-20T22:08:07.859Z,11.73
2019-04-20T22:10:34.659Z,12.83
2019-04-20T22:13:06.303Z,12.80
2019-04-20T22:15:45.398Z,13.00
2019-04-20T22:18:10.981Z,16.83
2019-04-20T22:20:49.372Z,14.10
2019-04-20T22:23:23.285Z,14.87
2019-04-20T22:25:53.102Z,13.47
2019-04-20T22:28:08.739Z,16.10
2019-04-20T22:30:37.963Z,14.27
2019-04-20T22:33:08.217Z,15.47
2019-04-20T22:35:47.904Z,10.67
2019-04-20T22:38:26.682Z,12.13
2019-04-20T22:40:56.591Z,14.30
2019-04-20T22:43:30.183Z,12.37
2019-04-20T22:45:57.199Z,15.83
2019-04-20T22:48:27.060Z,13.60
2019-04-20T22:51:14.271Z,12.57
2019-04-20T22:53:45.600Z,13.20
2019-04-20T22:56:19.765Z,17.33
2019-04-20T22:58:47.943Z,15.10
2019-04-20T23:01:05.269Z,13.53
2019-04-20T23:03:30.955Z,13.40
2019-04-20T23:06:00.636Z,12.30
2019-04-20T23:08:30.684Z,14.40
2019-04-20T23:11:02.590Z,15.87
2019-04-20T23:13:38.028Z,18.00
2019-04-20T23:16:02.633Z,22.40
2019-04-20T23:18:31.936Z,22.00
2019-04-20T23:21:06.290Z,19.33
2019-04-20T23:23:32.539Z,16.40
2019-04-20T23:26:03.009Z,15.80
2019-04-20T23:28:33.252Z,9.10
2019-04-20T23:31:07.409Z,12.47
2019-04-20T23:33:32.651Z,15.87
2019-04-20T23:36:04.390Z,13.50
2019-04-20T23:38:32.919Z,11.60
2019-04-20T23:41:01.833Z,12.20
2019-04-20T23:43:36.780Z,11.43
2019-04-20T23:46:22.268Z,11.87
2019-04-20T23:48:48.108Z,11.70
2019-04-20T23:51:46.203Z,13.27
2019-04-20T23:53:56.786Z,14.93
2019-04-20T23:56:20.168Z,15.90
2019-04-20T23:58:52.949Z,14.50
